createdAt,value
2022-09-27T00:04:31.608Z,77.57
2022-09-27T00:09:24.981Z,77.14
2022-09-27T00:14:19.967Z,76.37
2022-09-27T00:19:16.659Z,77.34
2022-09-27T00:24:13.519Z,77.63
2022-09-27T00:29:06.797Z,78.22
2022-09-27T00:34:03.616Z,78.08
2022-09-27T00:38:59.998Z,78.21
2022-09-27T00:43:54.997Z,77.81
2022-09-27T00:48:50.174Z,78.16
2022-09-27T00:53:47.238Z,77.57
2022-09-27T00:58:48.221Z,77.13
2022-09-27T01:03:47.262Z,77.85
2022-09-27T01:08:40.584Z,78.15
2022-09-27T01:13:42.485Z,78.95
2022-09-27T01:18:47.181Z,78.95
2022-09-27T01:24:18.282Z,79.56
2022-09-27T01:29:14.290Z,79.62
2022-09-27T01:34:18.244Z,80.16
2022-09-27T01:39:28.439Z,80.20
2022-09-27T01:44:51.862Z,80.23
2022-09-27T01:49:55.614Z,80.05
2022-09-27T01:54:54.277Z,80.45
2022-09-27T02:00:00.715Z,80.21
2022-09-27T02:05:14.357Z,80.81
2022-09-27T02:10:14.619Z,80.98
2022-09-27T02:15:16.752Z,81.08
2022-09-27T02:20:28.507Z,80.69
2022-09-27T02:25:25.877Z,81.08
2022-09-27T02:30:22.101Z,80.93
2022-09-27T02:35:30.965Z,80.78
2022-09-27T02:40:25.082Z,81.26
2022-09-27T02:45:20.766Z,81.55
2022-09-27T02:50:33.457Z,81.77
2022-09-27T02:55:59.317Z,82.40
2022-09-27T03:01:28.057Z,82.50
2022-09-27T03:06:43.559Z,81.81
2022-09-27T03:11:36.835Z,81.70
2022-09-27T03:16:33.221Z,80.84
2022-09-27T03:21:54.237Z,81.10
2022-09-27T03:26:48.106Z,81.13
2022-09-27T03:31:42.063Z,81.50
2022-09-27T03:36:58.034Z,81.15
2022-09-27T03:41:51.716Z,82.20
2022-09-27T03:46:45.408Z,82.49
2022-09-27T03:51:38.956Z,82.93
2022-09-27T03:56:33.873Z,81.96
2022-09-27T04:01:27.949Z,81.88
2022-09-27T04:06:37.525Z,81.04
2022-09-27T04:11:31.351Z,80.85
2022-09-27T04:16:27.823Z,81.02
2022-09-27T04:21:42.128Z,81.13
2022-09-27T04:26:37.568Z,80.81
2022-09-27T04:31:39.235Z,80.98
2022-09-27T04:36:50.430Z,81.32
2022-09-27T04:41:47.805Z,82.42
2022-09-27T04:46:42.964Z,83.17
2022-09-27T04:51:38.020Z,83.71
2022-09-27T04:56:31.670Z,84.17
2022-09-27T05:01:27.097Z,85.30
2022-09-27T05:06:27.705Z,85.55
2022-09-27T05:11:27.188Z,85.76
2022-09-27T05:16:43.949Z,85.78
2022-09-27T05:21:57.466Z,87.18
2022-09-27T05:26:51.198Z,87.97
2022-09-27T05:31:44.773Z,88.23
2022-09-27T05:36:38.582Z,87.53
2022-09-27T05:41:34.670Z,87.32
2022-09-27T05:46:28.680Z,86.49
2022-09-27T05:51:22.576Z,86.22
2022-09-27T05:56:16.025Z,86.03
2022-09-27T06:01:31.538Z,86.14
2022-09-27T06:07:12.198Z,87.70
2022-09-27T06:12:05.909Z,87.56
2022-09-27T06:17:00.757Z,87.01
2022-09-27T06:21:58.453Z,85.61
2022-09-27T06:27:00.021Z,85.98
2022-09-27T06:32:05.667Z,85.45
2022-09-27T06:37:28.551Z,86.71
2022-09-27T06:42:22.437Z,85.85
2022-09-27T06:47:27.334Z,85.79
2022-09-27T06:52:38.519Z,84.49
2022-09-27T06:57:49.486Z,85.27
2022-09-27T07:02:46.643Z,84.97
2022-09-27T07:07:58.981Z,86.54
2022-09-27T07:12:53.370Z,86.57
2022-09-27T07:17:48.185Z,86.35
2022-09-27T07:22:43.259Z,87.46
2022-09-27T07:27:38.711Z,87.31
2022-09-27T07:32:35.708Z,85.98
2022-09-27T07:37:33.383Z,84.78
2022-09-27T07:42:27.472Z,83.60
2022-09-27T07:47:21.352Z,82.29
2022-09-27T07:52:42.224Z,82.84
2022-09-27T07:58:03.112Z,81.89
2022-09-27T08:02:56.523Z,81.24
2022-09-27T08:07:56.794Z,81.39
2022-09-27T08:12:51.547Z,81.54
2022-09-27T08:17:52.541Z,83.86
2022-09-27T08:23:07.897Z,83.61
2022-09-27T08:28:08.667Z,83.65
2022-09-27T08:33:07.939Z,83.97
2022-09-27T08:38:05.669Z,83.82
2022-09-27T08:43:11.856Z,84.35
2022-09-27T08:48:06.609Z,84.97
2022-09-27T08:53:05.477Z,86.17
2022-09-27T08:58:00.925Z,85.93
2022-09-27T09:02:57.715Z,84.10
2022-09-27T09:08:06.401Z,81.90
2022-09-27T09:13:12.672Z,82.14
2022-09-27T09:18:25.180Z,82.61
2022-09-27T09:24:10.734Z,81.81
2022-09-27T09:29:23.881Z,81.64
2022-09-27T09:34:24.517Z,81.27
2022-09-27T09:39:23.762Z,81.09
2022-09-27T09:44:25.463Z,80.07
2022-09-27T09:49:25.486Z,79.27
2022-09-27T09:54:27.756Z,78.46
2022-09-27T09:59:33.526Z,76.99
2022-09-27T10:04:29.716Z,76.66
2022-09-27T10:09:27.863Z,77.38
2022-09-27T10:14:59.271Z,78.57
2022-09-27T10:19:54.968Z,78.82
2022-09-27T10:24:57.675Z,77.92
2022-09-27T10:30:24.786Z,76.88
2022-09-27T10:35:36.976Z,72.26
2022-09-27T10:40:35.480Z,72.77
2022-09-27T10:45:35.334Z,72.61
2022-09-27T10:50:59.285Z,72.65
2022-09-27T10:56:05.403Z,72.63
2022-09-27T11:01:03.581Z,73.30
2022-09-27T11:06:20.742Z,72.28
2022-09-27T11:11:21.435Z,69.96
2022-09-27T11:16:30.077Z,70.96
2022-09-27T11:21:36.344Z,73.08
2022-09-27T11:26:42.071Z,74.36
2022-09-27T11:31:44.040Z,73.18
2022-09-27T11:36:54.648Z,73.71
2022-09-27T11:42:06.939Z,72.56
2022-09-27T11:47:18.428Z,72.70
2022-09-27T11:52:34.458Z,72.10
2022-09-27T11:57:34.514Z,72.03
2022-09-27T12:02:46.686Z,70.28
2022-09-27T12:07:48.102Z,70.02
2022-09-27T12:12:46.079Z,70.79
2022-09-27T12:17:43.459Z,71.01
2022-09-27T12:22:58.649Z,69.77
2022-09-27T12:28:23.441Z,70.47
2022-09-27T12:33:29.363Z,70.68
2022-09-27T12:38:32.296Z,69.77
2022-09-27T12:43:28.923Z,70.27
2022-09-27T12:48:51.980Z,71.20
2022-09-27T12:54:13.879Z,71.17
2022-09-27T12:59:24.909Z,73.00
2022-09-27T13:04:34.206Z,73.01
2022-09-27T13:10:07.651Z,72.79
2022-09-27T13:15:06.802Z,75.41
2022-09-27T13:20:44.873Z,76.60
2022-09-27T13:26:04.510Z,78.47
2022-09-27T13:31:11.775Z,75.51
2022-09-27T13:36:30.731Z,74.00
2022-09-27T13:41:41.835Z,75.17
2022-09-27T13:46:37.068Z,78.16
2022-09-27T13:51:39.511Z,76.78
2022-09-27T13:56:56.329Z,74.75
2022-09-27T14:01:53.219Z,71.88
2022-09-27T14:06:58.426Z,71.56
2022-09-27T14:11:59.379Z,71.37
2022-09-27T14:16:54.592Z,72.99
2022-09-27T14:21:59.834Z,72.21
2022-09-27T14:27:24.353Z,74.10
2022-09-27T14:32:31.952Z,73.46
2022-09-27T14:37:30.345Z,73.91
2022-09-27T14:42:37.758Z,74.21
2022-09-27T14:47:31.904Z,75.07
2022-09-27T14:52:28.711Z,76.00
2022-09-27T14:57:23.419Z,76.63
2022-09-27T15:02:22.350Z,78.11
2022-09-27T15:07:17.233Z,79.01
2022-09-27T15:12:15.765Z,79.85
2022-09-27T15:17:21.141Z,80.70
2022-09-27T15:22:38.273Z,81.78
2022-09-27T15:27:33.597Z,82.79
2022-09-27T15:32:30.223Z,83.74
2022-09-27T15:37:30.061Z,84.04
2022-09-27T15:42:24.062Z,84.70
2022-09-27T15:47:52.764Z,84.06
2022-09-27T15:52:55.998Z,83.91
2022-09-27T15:57:54.871Z,84.79
2022-09-27T16:02:58.489Z,83.89
2022-09-27T16:07:51.894Z,83.57
2022-09-27T16:12:45.870Z,83.15
2022-09-27T16:17:40.359Z,82.11
2022-09-27T16:22:35.052Z,82.59
2022-09-27T16:27:29.525Z,82.69
2022-09-27T16:32:25.493Z,82.95
2022-09-27T16:37:18.909Z,82.77
2022-09-27T16:42:14.766Z,82.90
2022-09-27T16:47:08.971Z,82.63
2022-09-27T16:52:05.203Z,82.82
2022-09-27T16:56:59.912Z,83.90
2022-09-27T17:01:57.689Z,83.80
2022-09-27T17:06:51.561Z,83.99
2022-09-27T17:11:44.809Z,84.46
2022-09-27T17:16:39.543Z,85.01
2022-09-27T17:21:37.950Z,85.90
2022-09-27T17:26:32.332Z,85.82
2022-09-27T17:31:26.542Z,85.29
2022-09-27T17:36:26.197Z,84.77
2022-09-27T17:41:24.480Z,84.59
2022-09-27T17:46:20.015Z,84.71
2022-09-27T17:51:14.416Z,84.42
2022-09-27T17:56:08.260Z,84.78
2022-09-27T18:01:05.355Z,84.50
2022-09-27T18:05:59.335Z,85.07
2022-09-27T18:10:52.534Z,86.14
2022-09-27T18:15:56.890Z,86.89
2022-09-27T18:20:51.720Z,87.03
2022-09-27T18:25:45.216Z,87.10
2022-09-27T18:30:38.446Z,87.00
2022-09-27T18:35:31.864Z,86.88
2022-09-27T18:40:51.379Z,87.40
2022-09-27T18:45:40.929Z,86.73
2022-09-27T18:50:37.866Z,86.85
2022-09-27T18:55:36.042Z,86.40
2022-09-27T19:00:30.185Z,86.14
2022-09-27T19:05:44.550Z,86.37
2022-09-27T19:10:39.353Z,86.82
2022-09-27T19:15:32.639Z,87.40
2022-09-27T19:20:26.132Z,86.35
2022-09-27T19:25:19.287Z,87.32
2022-09-27T19:30:15.193Z,88.03
2022-09-27T19:35:09.219Z,88.19
2022-09-27T19:40:03.517Z,88.63
2022-09-27T19:44:56.656Z,88.78
2022-09-27T19:49:51.302Z,89.62
2022-09-27T19:54:45.049Z,90.41
2022-09-27T19:59:38.225Z,85.18
2022-09-27T20:04:31.397Z,80.05
2022-09-27T20:09:26.074Z,81.24
2022-09-27T20:14:20.058Z,83.45
2022-09-27T20:19:13.684Z,85.67
2022-09-27T20:24:07.360Z,86.59
2022-09-27T20:29:03.946Z,86.73
2022-09-27T20:33:57.546Z,87.88
2022-09-27T20:38:52.513Z,89.75
2022-09-27T20:43:49.507Z,89.34
2022-09-27T20:48:44.660Z,90.02
2022-09-27T20:53:37.891Z,90.06
2022-09-27T20:58:31.416Z,89.69
2022-09-27T21:03:24.644Z,90.15
2022-09-27T21:08:19.424Z,89.94
2022-09-27T21:13:12.905Z,87.64
2022-09-27T21:18:06.076Z,86.05
2022-09-27T21:22:59.214Z,85.05
2022-09-27T21:27:58.025Z,84.88
2022-09-27T21:32:57.460Z,84.78
2022-09-27T21:37:53.095Z,84.45
2022-09-27T21:42:46.133Z,84.62
2022-09-27T21:47:40.698Z,84.62
2022-09-27T21:52:33.884Z,85.11
2022-09-27T21:57:26.993Z,87.01
2022-09-27T22:02:20.477Z,88.43
2022-09-27T22:07:15.005Z,89.05
2022-09-27T22:12:08.292Z,89.32
2022-09-27T22:17:01.473Z,88.09
2022-09-27T22:21:54.704Z,88.84
2022-09-27T22:26:51.940Z,89.19
2022-09-27T22:31:45.198Z,91.03
2022-09-27T22:36:38.399Z,92.53
2022-09-27T22:41:32.230Z,93.00
2022-09-27T22:46:27.013Z,93.25
2022-09-27T22:51:20.569Z,92.58
2022-09-27T22:56:16.242Z,92.33
2022-09-27T23:01:10.702Z,92.20
2022-09-27T23:06:07.408Z,91.64
2022-09-27T23:11:05.091Z,91.32
2022-09-27T23:16:01.659Z,90.94
2022-09-27T23:20:56.692Z,90.32
2022-09-27T23:25:51.256Z,89.93
2022-09-27T23:30:44.308Z,89.78
2022-09-27T23:35:37.526Z,89.06
2022-09-27T23:40:31.585Z,88.95
2022-09-27T23:45:27.814Z,88.31
2022-09-27T23:50:22.045Z,88.24
2022-09-27T23:55:15.253Z,87.99
